Time;durP1;ratioP1;P1;durP2;ratioP2;P2;SDS_P1;SDS_P2;PMS_P1;PMS_P2;Temp;Humidity;BMP_temperature;BMP_pressure;BME280_temperature;BME280_humidity;BME280_pressure;Samples;Min_cycle;Max_cycle;Signal;HPM_P1;HPM_P2
2022/10/27 00:04:58;;;;;;;4.07;2.75;;;;;;;;;;12911972;23;20046;-78
2022/10/27 00:09:58;;;;;;;3.70;2.20;;;;;;;;;;12911961;23;20027;-79
2022/10/27 00:14:58;;;;;;;6.03;2.13;;;;;;;;;;12912390;22;19996;-78
2022/10/27 00:20:00;;;;;;;6.35;2.75;;;;;;;;;;12912101;23;20003;-78
2022/10/27 00:25:00;;;;;;;6.85;2.60;;;;;;;;;;12912916;23;20004;-80
2022/10/27 00:30:00;;;;;;;3.47;2.13;;;;;;;;;;12941210;23;19988;-73
2022/10/27 00:35:00;;;;;;;7.45;2.20;;;;;;;;;;12917239;22;19999;-73
2022/10/27 00:40:01;;;;;;;4.55;2.47;;;;;;;;;;12915623;23;20071;-75
2022/10/27 00:45:01;;;;;;;3.17;1.80;;;;;;;;;;12934816;22;20329;-78
2022/10/27 00:50:04;;;;;;;4.82;2.00;;;;;;;;;;12912086;22;20488;-73
2022/10/27 00:55:09;;;;;;;6.82;2.75;;;;;;;;;;12926669;22;20003;-76
2022/10/27 01:00:09;;;;;;;6.22;2.40;;;;;;;;;;12913472;23;20015;-76
2022/10/27 01:05:12;;;;;;;9.05;1.95;;;;;;;;;;12916075;23;20019;-77
2022/10/27 01:10:13;;;;;;;7.47;2.65;;;;;;;;;;12915666;23;19988;-77
2022/10/27 01:15:15;;;;;;;4.32;2.13;;;;;;;;;;12938850;22;20016;-73
2022/10/27 01:20:34;;;;;;;8.75;3.33;;;;;;;;;;12915881;22;20398;-76
2022/10/27 01:25:40;;;;;;;8.57;3.53;;;;;;;;;;12929540;23;20163;-74
2022/10/27 01:30:50;;;;;;;9.25;3.85;;;;;;;;;;12915440;23;20003;-75
2022/10/27 01:35:54;;;;;;;11.15;4.05;;;;;;;;;;12915711;23;19996;-80
2022/10/27 01:41:05;;;;;;;7.75;3.65;;;;;;;;;;12914517;22;19996;-72
2022/10/27 01:46:07;;;;;;;9.43;4.28;;;;;;;;;;12889672;23;20008;-74
2022/10/27 01:51:08;;;;;;;9.25;4.60;;;;;;;;;;12915490;23;20000;-80
2022/10/27 01:56:14;;;;;;;7.82;4.18;;;;;;;;;;12915271;23;19999;-76
2022/10/27 02:01:33;;;;;;;11.98;3.95;;;;;;;;;;12914554;23;19996;-75
2022/10/27 02:06:57;;;;;;;10.55;3.83;;;;;;;;;;12913958;23;20012;-78
2022/10/27 02:11:59;;;;;;;6.65;3.10;;;;;;;;;;12897696;23;19992;-78
2022/10/27 02:17:00;;;;;;;6.15;3.70;;;;;;;;;;12913832;22;20004;-80
2022/10/27 02:22:00;;;;;;;7.65;3.30;;;;;;;;;;12936807;22;19988;-75
2022/10/27 02:27:21;;;;;;;11.15;3.10;;;;;;;;;;12889154;23;19992;-74
2022/10/27 02:32:22;;;;;;;12.23;3.35;;;;;;;;;;12900921;23;20053;-80
2022/10/27 02:37:30;;;;;;;9.00;3.42;;;;;;;;;;12914683;23;20428;-78
2022/10/27 02:42:31;;;;;;;12.02;3.67;;;;;;;;;;12913878;23;20000;-73
2022/10/27 02:47:31;;;;;;;5.82;2.90;;;;;;;;;;12936507;22;19992;-75
2022/10/27 02:52:31;;;;;;;8.40;3.47;;;;;;;;;;12913770;23;20424;-74
2022/10/27 02:57:31;;;;;;;6.60;4.03;;;;;;;;;;12938044;22;20061;-78
2022/10/27 03:02:32;;;;;;;6.65;3.00;;;;;;;;;;12931109;23;20027;-79
2022/10/27 03:07:32;;;;;;;10.73;5.43;;;;;;;;;;12945407;22;20428;-75
2022/10/27 03:12:32;;;;;;;7.82;3.28;;;;;;;;;;12940386;23;20067;-75
2022/10/27 03:17:32;;;;;;;11.25;3.53;;;;;;;;;;12919724;23;20432;-75
2022/10/27 03:22:35;;;;;;;10.15;4.13;;;;;;;;;;12936464;22;20027;-75
2022/10/27 03:27:38;;;;;;;10.35;3.72;;;;;;;;;;12913070;23;19992;-74
2022/10/27 03:32:38;;;;;;;11.07;3.75;;;;;;;;;;12927124;22;20075;-73
2022/10/27 03:37:38;;;;;;;8.13;4.40;;;;;;;;;;12887827;23;20015;-75
2022/10/27 03:42:40;;;;;;;12.70;4.07;;;;;;;;;;12912313;23;20075;-76
2022/10/27 03:47:41;;;;;;;14.15;4.78;;;;;;;;;;12934537;22;19995;-75
2022/10/27 03:52:41;;;;;;;6.32;3.72;;;;;;;;;;12913219;23;19996;-76
2022/10/27 03:57:42;;;;;;;6.80;3.05;;;;;;;;;;12912110;23;20444;-74
2022/10/27 04:02:42;;;;;;;12.43;4.70;;;;;;;;;;12885121;23;20368;-74
2022/10/27 04:07:42;;;;;;;11.23;3.42;;;;;;;;;;12911546;23;20083;-79
2022/10/27 04:12:50;;;;;;;11.15;3.80;;;;;;;;;;12911680;23;19988;-75
2022/10/27 04:17:51;;;;;;;;;;;;;;;;;;12912034;23;19996;-73
2022/10/27 04:22:53;;;;;;;8.77;3.30;;;;;;;;;;12911572;23;20347;-75
2022/10/27 04:28:00;;;;;;;8.35;3.40;;;;;;;;;;12907842;23;19995;-78
2022/10/27 04:33:00;;;;;;;6.30;3.40;;;;;;;;;;12910318;23;20046;-78
2022/10/27 04:38:01;;;;;;;7.32;4.00;;;;;;;;;;12910221;23;20000;-74
2022/10/27 04:43:01;;;;;;;10.00;4.28;;;;;;;;;;12911189;23;20030;-79
2022/10/27 04:48:01;;;;;;;8.48;3.78;;;;;;;;;;12910998;22;20436;-73
2022/10/27 04:53:02;;;;;;;12.43;4.33;;;;;;;;;;12933284;22;19996;-75
2022/10/27 04:58:02;;;;;;;13.02;4.78;;;;;;;;;;12910277;23;20074;-76
2022/10/27 05:03:03;;;;;;;9.27;4.82;;;;;;;;;;12910939;23;20468;-75
2022/10/27 05:08:04;;;;;;;17.75;5.80;;;;;;;;;;12911112;22;19988;-74
2022/10/27 05:13:05;;;;;;;24.90;4.82;;;;;;;;;;12932555;22;19999;-80
2022/10/27 05:18:05;;;;;;;12.40;3.97;;;;;;;;;;12910497;23;20387;-73
2022/10/27 05:23:06;;;;;;;6.00;3.22;;;;;;;;;;12930567;22;19997;-75
2022/10/27 05:28:07;;;;;;;9.95;3.60;;;;;;;;;;12907207;23;20322;-75
2022/10/27 05:33:07;;;;;;;7.75;4.15;;;;;;;;;;12910898;23;19996;-73
2022/10/27 05:38:08;;;;;;;11.68;3.97;;;;;;;;;;12917870;23;20401;-79
2022/10/27 05:43:08;;;;;;;12.88;4.18;;;;;;;;;;12917370;23;20050;-73
2022/10/27 05:48:09;;;;;;;10.70;4.93;;;;;;;;;;12914197;22;19989;-74
2022/10/27 05:53:10;;;;;;;13.88;5.80;;;;;;;;;;12940159;22;19996;-80
2022/10/27 05:58:10;;;;;;;15.93;5.78;;;;;;;;;;12936089;22;19996;-75
2022/10/27 06:03:20;;;;;;;19.77;7.07;;;;;;;;;;12913975;23;20016;-75
2022/10/27 06:08:21;;;;;;;19.25;6.60;;;;;;;;;;12936693;22;19988;-73
2022/10/27 06:13:21;;;;;;;11.73;5.90;;;;;;;;;;12914387;23;20065;-78
2022/10/27 06:18:21;;;;;;;9.75;4.95;;;;;;;;;;12936561;22;19999;-75
2022/10/27 06:23:22;;;;;;;17.67;5.82;;;;;;;;;;12934286;22;20448;-74
2022/10/27 06:28:22;;;;;;;16.33;5.83;;;;;;;;;;12914276;23;20058;-80
2022/10/27 06:33:22;;;;;;;14.07;5.18;;;;;;;;;;12913942;23;19996;-76
2022/10/27 06:38:23;;;;;;;12.55;5.03;;;;;;;;;;12913511;22;20436;-80
2022/10/27 06:43:23;;;;;;;6.60;3.58;;;;;;;;;;12913241;23;20007;-75
2022/10/27 06:48:23;;;;;;;11.13;4.90;;;;;;;;;;12914450;23;19984;-77
2022/10/27 06:53:23;;;;;;;10.10;5.35;;;;;;;;;;12912941;23;20056;-74
2022/10/27 06:58:24;;;;;;;15.02;5.97;;;;;;;;;;12912723;23;19992;-75
2022/10/27 07:03:24;;;;;;;14.45;5.72;;;;;;;;;;12913735;23;20484;-75
2022/10/27 07:08:24;;;;;;;9.48;4.65;;;;;;;;;;12913519;23;20429;-81
2022/10/27 07:13:25;;;;;;;18.30;5.28;;;;;;;;;;12913075;22;20389;-75
2022/10/27 07:18:25;;;;;;;13.23;5.57;;;;;;;;;;12912988;23;20178;-74
2022/10/27 07:23:25;;;;;;;13.53;6.50;;;;;;;;;;12912434;23;20007;-76
2022/10/27 07:28:26;;;;;;;20.55;7.45;;;;;;;;;;12916148;22;20315;-75
2022/10/27 07:33:26;;;;;;;22.77;8.27;;;;;;;;;;12912381;23;20058;-78
2022/10/27 07:38:26;;;;;;;22.70;10.35;;;;;;;;;;12912572;23;19988;-74
2022/10/27 07:43:26;;;;;;;25.37;11.83;;;;;;;;;;12934874;22;19996;-75
2022/10/27 07:48:27;;;;;;;17.75;9.80;;;;;;;;;;12912842;23;19988;-75
2022/10/27 07:53:27;;;;;;;27.88;9.88;;;;;;;;;;12911902;22;19992;-80
2022/10/27 07:58:27;;;;;;;24.05;11.60;;;;;;;;;;12911985;23;20061;-75
2022/10/27 08:03:30;;;;;;;24.17;10.50;;;;;;;;;;12934226;22;20356;-75
2022/10/27 08:08:30;;;;;;;26.88;10.52;;;;;;;;;;12934194;22;20022;-79
2022/10/27 08:13:31;;;;;;;21.55;9.93;;;;;;;;;;12912527;23;20001;-80
2022/10/27 08:18:31;;;;;;;26.38;10.32;;;;;;;;;;12911512;22;20020;-76
2022/10/27 08:23:31;;;;;;;15.63;7.82;;;;;;;;;;12912025;22;20054;-76
2022/10/27 08:28:31;;;;;;;20.80;7.30;;;;;;;;;;12911642;23;20003;-75
2022/10/27 08:33:32;;;;;;;30.40;9.07;;;;;;;;;;12922156;22;20419;-75
2022/10/27 08:38:32;;;;;;;19.75;7.72;;;;;;;;;;12927508;23;19992;-73
2022/10/27 08:43:36;;;;;;;17.17;8.35;;;;;;;;;;12951560;22;20019;-81
2022/10/27 08:48:36;;;;;;;15.55;6.38;;;;;;;;;;12911427;23;20433;-74
2022/10/27 08:53:37;;;;;;;15.75;6.13;;;;;;;;;;12915787;23;20003;-76
2022/10/27 08:58:38;;;;;;;15.77;6.60;;;;;;;;;;12935807;22;19989;-77
2022/10/27 09:03:45;;;;;;;26.27;7.18;;;;;;;;;;12911288;23;20266;-79
2022/10/27 09:08:59;;;;;;;15.80;5.68;;;;;;;;;;12911808;23;19995;-74
2022/10/27 09:13:59;;;;;;;18.13;4.22;;;;;;;;;;12911765;23;20340;-75
2022/10/27 09:19:01;;;;;;;14.32;5.15;;;;;;;;;;12911522;23;20035;-82
2022/10/27 09:24:09;;;;;;;13.57;5.03;;;;;;;;;;12913738;23;20038;-81
2022/10/27 09:29:20;;;;;;;16.35;5.25;;;;;;;;;;12914990;23;19997;-75
2022/10/27 09:34:25;;;;;;;14.85;4.53;;;;;;;;;;12914865;23;20129;-80
2022/10/27 09:39:25;;;;;;;11.75;4.35;;;;;;;;;;12914379;23;19992;-74
2022/10/27 09:44:25;;;;;;;6.00;3.38;;;;;;;;;;12937386;22;20441;-74
2022/10/27 09:49:27;;;;;;;13.83;3.90;;;;;;;;;;12937155;22;19984;-74
2022/10/27 09:54:32;;;;;;;9.95;3.72;;;;;;;;;;12889376;23;20024;-75
2022/10/27 09:59:35;;;;;;;9.35;3.50;;;;;;;;;;12914553;23;19996;-74
2022/10/27 10:04:42;;;;;;;6.63;3.28;;;;;;;;;;12913309;23;20012;-81
2022/10/27 10:09:42;;;;;;;7.97;2.83;;;;;;;;;;12917699;23;20018;-78
2022/10/27 10:14:43;;;;;;;4.53;1.80;;;;;;;;;;12915756;23;20019;-77
2022/10/27 10:19:46;;;;;;;6.68;2.83;;;;;;;;;;12913691;22;20129;-78
2022/10/27 10:24:46;;;;;;;8.15;2.97;;;;;;;;;;12929172;22;20008;-74
2022/10/27 10:29:48;;;;;;;9.33;2.83;;;;;;;;;;12914147;23;20003;-81
2022/10/27 10:34:51;;;;;;;5.22;1.95;;;;;;;;;;12914372;23;20373;-79
2022/10/27 10:39:52;;;;;;;2.60;1.33;;;;;;;;;;12936395;22;19996;-74
2022/10/27 10:45:08;;;;;;;4.75;1.45;;;;;;;;;;12913146;23;20351;-80
2022/10/27 10:50:10;;;;;;;5.70;1.67;;;;;;;;;;12913003;22;19992;-76
2022/10/27 10:55:24;;;;;;;1.73;1.00;;;;;;;;;;12934533;23;20019;-75
2022/10/27 11:00:25;;;;;;;9.07;1.67;;;;;;;;;;12913247;23;19992;-79
2022/10/27 11:05:35;;;;;;;7.63;2.03;;;;;;;;;;12913558;23;20023;-74
2022/10/27 11:10:37;;;;;;;7.15;1.75;;;;;;;;;;12913227;23;20075;-78
2022/10/27 11:15:40;;;;;;;4.85;1.45;;;;;;;;;;12935489;22;20046;-78
2022/10/27 11:20:41;;;;;;;5.95;1.55;;;;;;;;;;12912812;23;19996;-74
2022/10/27 11:25:43;;;;;;;9.27;2.00;;;;;;;;;;12912896;22;20069;-80
2022/10/27 11:31:16;;;;;;;7.78;1.48;;;;;;;;;;12912625;22;19992;-78
2022/10/27 11:36:31;;;;;;;4.50;1.40;;;;;;;;;;12896996;22;20457;-83
2022/10/27 11:41:37;;;;;;;3.47;1.02;;;;;;;;;;12912300;22;19992;-74
2022/10/27 11:46:37;;;;;;;3.65;1.52;;;;;;;;;;12911881;23;20027;-79
2022/10/27 11:51:56;;;;;;;1.52;0.98;;;;;;;;;;12935034;22;20573;-77
2022/10/27 11:57:03;;;;;;;4.93;0.93;;;;;;;;;;12911947;23;20000;-75
2022/10/27 12:02:22;;;;;;;2.63;1.20;;;;;;;;;;12912193;23;19989;-75
2022/10/27 12:07:41;;;;;;;4.65;1.27;;;;;;;;;;12912078;23;20016;-75
2022/10/27 12:12:47;;;;;;;6.35;1.58;;;;;;;;;;12934111;23;20416;-74
2022/10/27 12:18:12;;;;;;;5.20;1.35;;;;;;;;;;12934544;22;20091;-78
2022/10/27 12:23:23;;;;;;;5.03;1.90;;;;;;;;;;12886196;23;20008;-75
2022/10/27 12:28:24;;;;;;;5.80;2.15;;;;;;;;;;12915401;22;19992;-75
2022/10/27 12:33:28;;;;;;;5.28;1.50;;;;;;;;;;12934435;22;20032;-73
2022/10/27 12:38:37;;;;;;;2.58;1.20;;;;;;;;;;12909422;22;19996;-78
2022/10/27 12:43:43;;;;;;;3.65;1.73;;;;;;;;;;12913486;22;20003;-74
2022/10/27 12:49:02;;;;;;;4.22;1.70;;;;;;;;;;12914540;23;20011;-75
2022/10/27 12:54:18;;;;;;;12.85;1.80;;;;;;;;;;12912312;23;20317;-75
2022/10/27 12:59:37;;;;;;;3.80;1.25;;;;;;;;;;12934984;23;19997;-75
2022/10/27 13:04:56;;;;;;;4.28;1.42;;;;;;;;;;12925191;23;20016;-75
2022/10/27 13:10:15;;;;;;;6.45;2.00;;;;;;;;;;12917152;23;19992;-74
2022/10/27 13:15:23;;;;;;;5.22;1.15;;;;;;;;;;12913463;23;19992;-74
2022/10/27 13:20:23;;;;;;;;;;;;;;;;;;12914837;22;20454;-75
2022/10/27 13:25:23;;;;;;;9.68;1.90;;;;;;;;;;12929756;23;19907;-81
2022/10/27 13:30:26;;;;;;;1.90;1.10;;;;;;;;;;12913399;23;19992;-77
2022/10/27 13:35:27;;;;;;;1.63;1.08;;;;;;;;;;12913588;23;19992;-81
2022/10/27 13:40:32;;;;;;;5.45;1.15;;;;;;;;;;12913737;23;20053;-76
2022/10/27 13:45:32;;;;;;;3.83;1.67;;;;;;;;;;12912410;23;20000;-79
2022/10/27 13:50:37;;;;;;;2.67;1.38;;;;;;;;;;12914239;23;20436;-79
2022/10/27 13:55:38;;;;;;;2.95;1.17;;;;;;;;;;12913915;23;20002;-80
2022/10/27 14:00:38;;;;;;;6.80;1.70;;;;;;;;;;12913915;23;20049;-80
2022/10/27 14:05:42;;;;;;;4.97;2.00;;;;;;;;;;12935852;22;20012;-75
2022/10/27 14:10:42;;;;;;;2.90;1.75;;;;;;;;;;12924262;22;20033;-80
2022/10/27 14:15:42;;;;;;;3.40;1.83;;;;;;;;;;12912880;23;19992;-74
2022/10/27 14:20:43;;;;;;;9.77;1.80;;;;;;;;;;12934060;22;20511;-76
2022/10/27 14:25:43;;;;;;;6.13;2.65;;;;;;;;;;12913079;23;20035;-80
2022/10/27 14:30:46;;;;;;;6.40;1.85;;;;;;;;;;12923276;22;20449;-76
2022/10/27 14:35:46;;;;;;;7.15;2.80;;;;;;;;;;12913187;23;19992;-80
2022/10/27 14:40:47;;;;;;;3.63;1.90;;;;;;;;;;12912517;23;20490;-83
2022/10/27 14:45:52;;;;;;;9.25;1.85;;;;;;;;;;12912615;22;20320;-77
2022/10/27 14:50:52;;;;;;;5.95;1.85;;;;;;;;;;12934661;22;20471;-74
2022/10/27 14:56:02;;;;;;;12.48;2.50;;;;;;;;;;12920695;23;20045;-74
2022/10/27 15:01:02;;;;;;;15.23;3.20;;;;;;;;;;12933913;22;19999;-76
2022/10/27 15:06:03;;;;;;;14.00;3.65;;;;;;;;;;12887145;23;20019;-74
2022/10/27 15:11:04;;;;;;;17.80;3.50;;;;;;;;;;12933669;22;19992;-75
2022/10/27 15:16:10;;;;;;;11.68;3.67;;;;;;;;;;12910063;23;19993;-74
2022/10/27 15:21:21;;;;;;;25.65;4.63;;;;;;;;;;12908828;23;20390;-77
2022/10/27 15:26:25;;;;;;;18.25;4.05;;;;;;;;;;12920119;22;20008;-79
2022/10/27 15:31:25;;;;;;;9.02;3.58;;;;;;;;;;12913204;23;19996;-79
2022/10/27 15:36:25;;;;;;;16.25;4.90;;;;;;;;;;12910475;22;20336;-73
2022/10/27 15:41:26;;;;;;;10.40;4.25;;;;;;;;;;12908517;23;20015;-75
2022/10/27 15:46:31;;;;;;;16.02;4.00;;;;;;;;;;12932953;22;20020;-74
2022/10/27 15:51:45;;;;;;;18.33;4.60;;;;;;;;;;12931427;22;20071;-75
2022/10/27 15:56:51;;;;;;;15.30;4.05;;;;;;;;;;12907957;22;20477;-79
2022/10/27 16:01:54;;;;;;;11.65;4.18;;;;;;;;;;12928892;22;19992;-81
2022/10/27 16:07:13;;;;;;;9.88;3.92;;;;;;;;;;12906573;23;20091;-76
2022/10/27 16:12:14;;;;;;;14.63;4.90;;;;;;;;;;12913008;23;19988;-77
2022/10/27 16:17:15;;;;;;;15.25;4.65;;;;;;;;;;12906990;23;19988;-80
2022/10/27 16:22:18;;;;;;;27.27;7.07;;;;;;;;;;12907031;23;19995;-78
2022/10/27 16:27:23;;;;;;;25.98;6.93;;;;;;;;;;12906986;23;19999;-78
2022/10/27 16:32:24;;;;;;;30.42;6.50;;;;;;;;;;12901098;23;19992;-78
2022/10/27 16:37:26;;;;;;;22.65;6.53;;;;;;;;;;12901156;22;20452;-79
2022/10/27 16:42:30;;;;;;;19.67;5.95;;;;;;;;;;12904505;23;20053;-81
2022/10/27 16:47:30;;;;;;;19.95;7.13;;;;;;;;;;12918052;22;20007;-78
2022/10/27 16:52:30;;;;;;;15.27;5.28;;;;;;;;;;12949931;22;20011;-76
2022/10/27 16:57:30;;;;;;;15.35;6.18;;;;;;;;;;12925989;23;19996;-78
2022/10/27 17:02:31;;;;;;;17.48;5.90;;;;;;;;;;12925645;22;20097;-78
2022/10/27 17:07:31;;;;;;;17.40;5.67;;;;;;;;;;12936097;22;20445;-79
2022/10/27 17:12:31;;;;;;;32.15;7.00;;;;;;;;;;12906104;23;20309;-78
2022/10/27 17:17:32;;;;;;;11.82;5.00;;;;;;;;;;12906447;23;20326;-77
2022/10/27 17:22:32;;;;;;;13.57;4.82;;;;;;;;;;12905190;23;19998;-79
2022/10/27 17:27:32;;;;;;;20.63;5.95;;;;;;;;;;12907683;23;20079;-80
2022/10/27 17:32:33;;;;;;;25.67;5.82;;;;;;;;;;12907635;23;20027;-76
2022/10/27 17:37:33;;;;;;;30.48;7.22;;;;;;;;;;12902904;23;20073;-78
2022/10/27 17:42:34;;;;;;;14.67;7.50;;;;;;;;;;12906552;23;20364;-79
2022/10/27 17:47:35;;;;;;;25.00;7.07;;;;;;;;;;12911952;22;20000;-79
2022/10/27 17:52:35;;;;;;;19.73;6.68;;;;;;;;;;12910969;23;20046;-81
2022/10/27 17:57:35;;;;;;;19.58;6.70;;;;;;;;;;12906542;22;20044;-79
2022/10/27 18:02:38;;;;;;;22.25;7.45;;;;;;;;;;12933309;22;20004;-81
2022/10/27 18:07:38;;;;;;;17.38;7.32;;;;;;;;;;12930415;22;20475;-79
2022/10/27 18:12:39;;;;;;;22.63;8.00;;;;;;;;;;12906836;23;20054;-82
2022/10/27 18:17:39;;;;;;;24.25;7.82;;;;;;;;;;12908462;23;20020;-80
2022/10/27 18:22:39;;;;;;;31.48;10.68;;;;;;;;;;12906057;23;20004;-78
2022/10/27 18:27:39;;;;;;;31.20;7.50;;;;;;;;;;12909622;23;20022;-80
2022/10/27 18:32:39;;;;;;;17.40;6.75;;;;;;;;;;12934687;22;19996;-78
2022/10/27 18:37:40;;;;;;;17.98;6.97;;;;;;;;;;12912410;23;20003;-75
2022/10/27 18:42:45;;;;;;;15.38;6.18;;;;;;;;;;12916658;23;20087;-79
2022/10/27 18:47:46;;;;;;;11.98;4.40;;;;;;;;;;12910059;22;19992;-79
2022/10/27 18:52:48;;;;;;;14.70;4.25;;;;;;;;;;12906983;23;19996;-79
2022/10/27 18:57:49;;;;;;;11.75;4.78;;;;;;;;;;12909412;23;20520;-78
2022/10/27 19:02:50;;;;;;;15.27;5.97;;;;;;;;;;12909359;22;20062;-76
2022/10/27 19:07:50;;;;;;;8.63;4.20;;;;;;;;;;12908443;23;19997;-76
2022/10/27 19:12:50;;;;;;;12.63;3.45;;;;;;;;;;12931637;22;19999;-75
2022/10/27 19:17:51;;;;;;;9.88;4.38;;;;;;;;;;12909375;23;19995;-75
2022/10/27 19:22:52;;;;;;;10.00;4.45;;;;;;;;;;12905668;23;20004;-76
2022/10/27 19:27:53;;;;;;;8.10;4.13;;;;;;;;;;12906480;23;19996;-74
2022/10/27 19:32:53;;;;;;;8.18;4.05;;;;;;;;;;12908953;23;19996;-78
2022/10/27 19:37:54;;;;;;;6.75;4.13;;;;;;;;;;12910987;22;20080;-75
2022/10/27 19:42:54;;;;;;;7.68;4.03;;;;;;;;;;12923642;23;20018;-76
2022/10/27 19:47:54;;;;;;;10.15;5.50;;;;;;;;;;12928405;23;20314;-75
2022/10/27 19:52:55;;;;;;;10.57;4.78;;;;;;;;;;12932313;23;19992;-76
2022/10/27 19:57:57;;;;;;;14.23;4.35;;;;;;;;;;12926549;23;20066;-74
2022/10/27 20:02:59;;;;;;;10.90;4.57;;;;;;;;;;12932350;22;20073;-77
2022/10/27 20:08:00;;;;;;;16.95;6.55;;;;;;;;;;12908918;22;20027;-78
2022/10/27 20:13:00;;;;;;;11.65;4.95;;;;;;;;;;12906294;22;20022;-79
2022/10/27 20:18:00;;;;;;;8.93;4.35;;;;;;;;;;12907970;23;19996;-77
2022/10/27 20:23:01;;;;;;;23.92;4.80;;;;;;;;;;12909248;23;20003;-78
2022/10/27 20:28:01;;;;;;;16.67;5.90;;;;;;;;;;12907315;22;19996;-79
2022/10/27 20:33:02;;;;;;;14.90;5.28;;;;;;;;;;12909975;22;20010;-78
2022/10/27 20:38:02;;;;;;;16.55;5.15;;;;;;;;;;12906504;22;20433;-76
2022/10/27 20:43:04;;;;;;;12.25;4.95;;;;;;;;;;12903697;23;20020;-77
2022/10/27 20:48:05;;;;;;;15.68;4.43;;;;;;;;;;12911841;23;19992;-73
2022/10/27 20:53:05;;;;;;;9.25;4.68;;;;;;;;;;12911405;23;20421;-72
2022/10/27 20:58:05;;;;;;;10.73;5.43;;;;;;;;;;12886213;23;20340;-74
2022/10/27 21:03:05;;;;;;;11.88;5.55;;;;;;;;;;12912148;23;20012;-76
2022/10/27 21:08:06;;;;;;;9.77;4.97;;;;;;;;;;12911985;23;20004;-81
2022/10/27 21:13:07;;;;;;;12.38;5.47;;;;;;;;;;12911198;23;20490;-74
2022/10/27 21:18:08;;;;;;;23.17;7.82;;;;;;;;;;12936288;22;20340;-76
2022/10/27 21:23:09;;;;;;;12.95;5.72;;;;;;;;;;12938763;22;20003;-74
2022/10/27 21:28:10;;;;;;;15.48;6.53;;;;;;;;;;12915214;23;19992;-76
2022/10/27 21:33:12;;;;;;;21.33;6.20;;;;;;;;;;12942235;22;20010;-81
2022/10/27 21:38:12;;;;;;;15.98;6.28;;;;;;;;;;12916587;22;19996;-79
2022/10/27 21:43:12;;;;;;;17.17;6.55;;;;;;;;;;12915277;23;20000;-75
2022/10/27 21:48:12;;;;;;;14.95;6.65;;;;;;;;;;12889822;23;20495;-76
2022/10/27 21:53:14;;;;;;;15.93;7.63;;;;;;;;;;12915882;22;20433;-75
2022/10/27 21:58:14;;;;;;;13.23;6.35;;;;;;;;;;12915395;23;19999;-74
2022/10/27 22:03:14;;;;;;;18.67;7.78;;;;;;;;;;12935524;22;20004;-79
2022/10/27 22:08:14;;;;;;;18.83;7.33;;;;;;;;;;12937465;22;20325;-74
2022/10/27 22:13:15;;;;;;;22.90;9.07;;;;;;;;;;12914827;23;20345;-81
2022/10/27 22:18:16;;;;;;;22.25;9.05;;;;;;;;;;12915290;23;20324;-74
2022/10/27 22:23:16;;;;;;;14.85;7.60;;;;;;;;;;12915089;23;20004;-74
2022/10/27 22:28:16;;;;;;;15.05;5.65;;;;;;;;;;12919732;23;20038;-79
2022/10/27 22:33:16;;;;;;;15.13;5.97;;;;;;;;;;12916745;22;20028;-74
2022/10/27 22:38:17;;;;;;;11.27;5.05;;;;;;;;;;12915282;23;20031;-76
2022/10/27 22:43:17;;;;;;;11.02;4.65;;;;;;;;;;12914025;22;20019;-75
2022/10/27 22:48:17;;;;;;;7.95;4.55;;;;;;;;;;12913446;23;19988;-76
2022/10/27 22:53:17;;;;;;;9.65;5.28;;;;;;;;;;12913731;23;19992;-75
2022/10/27 22:58:18;;;;;;;17.40;6.07;;;;;;;;;;12914268;23;20035;-75
2022/10/27 23:03:18;;;;;;;11.00;5.07;;;;;;;;;;12923032;22;20016;-73
2022/10/27 23:08:18;;;;;;;11.10;6.15;;;;;;;;;;12914095;23;19988;-75
2022/10/27 23:13:18;;;;;;;14.07;5.70;;;;;;;;;;12913311;23;20063;-75
2022/10/27 23:18:19;;;;;;;13.95;5.88;;;;;;;;;;12936392;22;19996;-74
2022/10/27 23:23:19;;;;;;;15.55;5.78;;;;;;;;;;12935439;22;20000;-77
2022/10/27 23:28:19;;;;;;;11.90;6.05;;;;;;;;;;12912556;23;20412;-78
2022/10/27 23:33:20;;;;;;;17.92;5.63;;;;;;;;;;12912823;22;20054;-74
2022/10/27 23:38:21;;;;;;;13.32;5.43;;;;;;;;;;12912294;23;19988;-75
2022/10/27 23:43:22;;;;;;;9.88;5.10;;;;;;;;;;12911980;22;20009;-79
2022/10/27 23:48:22;;;;;;;11.38;5.28;;;;;;;;;;12912362;23;19992;-74
2022/10/27 23:53:23;;;;;;;11.25;4.80;;;;;;;;;;12912426;23;19999;-80
2022/10/27 23:58:23;;;;;;;14.57;5.63;;;;;;;;;;12935202;22;20059;-74
